Time;durP1;ratioP1;P1;durP2;ratioP2;P2;SDS_P1;SDS_P2;PMS_P1;PMS_P2;Temp;Humidity;BMP_temperature;BMP_pressure;BME280_temperature;BME280_humidity;BME280_pressure;Samples;Min_cycle;Max_cycle;Signal;HPM_P1;HPM_P2
2021/11/06 00:00:53;;;;;;;7.03;2.90;;;8.40;99.90;;;;;;5091231;28;20122;-71
2021/11/06 00:03:18;;;;;;;4.68;2.60;;;8.40;99.90;;;;;;5092266;28;20879;-71
2021/11/06 00:05:44;;;;;;;5.85;2.58;;;8.40;99.90;;;;;;5058436;28;20657;-71
2021/11/06 00:08:10;;;;;;;5.65;2.95;;;8.40;99.90;;;;;;5074651;28;20043;-71
2021/11/06 00:10:36;;;;;;;8.30;2.97;;;8.40;99.90;;;;;;5075042;28;20067;-71
2021/11/06 00:13:02;;;;;;;6.20;3.55;;;8.40;99.90;;;;;;5051694;28;20047;-71
2021/11/06 00:15:29;;;;;;;10.30;3.15;;;8.40;99.90;;;;;;5068506;28;20049;-71
2021/11/06 00:17:55;;;;;;;7.00;2.80;;;8.50;99.90;;;;;;5032246;28;20048;-71
2021/11/06 00:20:21;;;;;;;7.57;2.85;;;8.40;99.90;;;;;;5047175;28;20136;-71
2021/11/06 00:22:47;;;;;;;7.20;3.20;;;8.40;99.90;;;;;;5048383;28;20103;-72
2021/11/06 00:25:14;;;;;;;10.50;2.80;;;8.40;99.90;;;;;;5032098;28;20499;-71
2021/11/06 00:27:41;;;;;;;6.55;3.00;;;8.40;99.90;;;;;;5048242;28;20048;-72
2021/11/06 00:30:09;;;;;;;8.10;2.95;;;8.40;99.90;;;;;;5018648;28;20045;-72
2021/11/06 00:32:35;;;;;;;11.30;3.47;;;8.40;99.90;;;;;;5024796;28;20583;-71
2021/11/06 00:35:01;;;;;;;9.55;2.72;;;8.40;99.90;;;;;;5047938;28;20052;-71
2021/11/06 00:37:27;;;;;;;9.07;3.20;;;8.40;99.90;;;;;;5032007;28;20044;-71
2021/11/06 00:39:53;;;;;;;7.57;3.10;;;8.40;99.90;;;;;;5047185;28;20037;-71
2021/11/06 00:42:19;;;;;;;6.35;2.95;;;8.40;99.90;;;;;;5046325;28;20059;-72
2021/11/06 00:44:45;;;;;;;8.98;3.50;;;8.40;99.90;;;;;;5032065;28;20060;-71
2021/11/06 00:47:11;;;;;;;7.53;3.05;;;8.40;99.90;;;;;;5032029;28;20045;-71
2021/11/06 00:49:38;;;;;;;8.60;2.92;;;8.30;99.90;;;;;;5015129;28;20041;-71
2021/11/06 00:52:06;;;;;;;6.93;2.90;;;8.40;99.90;;;;;;5023697;28;20029;-71
2021/11/06 00:54:32;;;;;;;7.05;3.42;;;8.30;99.90;;;;;;5048107;28;20778;-71
2021/11/06 00:57:01;;;;;;;10.63;3.40;;;8.30;99.90;;;;;;5031633;28;20079;-71
2021/11/06 00:59:27;;;;;;;7.00;3.47;;;8.30;99.90;;;;;;5032238;28;20059;-72
2021/11/06 01:01:53;;;;;;;6.93;3.20;;;8.30;99.90;;;;;;5031184;28;20395;-71
2021/11/06 01:04:19;;;;;;;5.97;3.38;;;8.30;99.90;;;;;;5031392;28;20056;-72
2021/11/06 01:06:45;;;;;;;8.93;3.55;;;8.30;99.90;;;;;;5031182;28;20131;-71
2021/11/06 01:09:11;;;;;;;6.28;3.15;;;8.30;99.90;;;;;;5031610;28;20483;-71
2021/11/06 01:11:39;;;;;;;7.78;3.45;;;8.30;99.90;;;;;;5031103;28;20052;-71
2021/11/06 01:14:05;;;;;;;7.80;3.30;;;8.20;99.90;;;;;;5046787;28;20057;-72
2021/11/06 01:16:31;;;;;;;5.80;3.28;;;8.20;99.90;;;;;;5030629;28;20128;-71
2021/11/06 01:18:57;;;;;;;9.50;4.13;;;8.20;99.90;;;;;;5046937;28;20646;-71
2021/11/06 01:21:23;;;;;;;7.75;3.70;;;8.10;99.90;;;;;;5029730;28;20056;-71
2021/11/06 01:23:49;;;;;;;10.32;3.97;;;8.10;99.90;;;;;;5030920;28;20582;-71
2021/11/06 01:26:15;;;;;;;10.23;3.67;;;8.10;99.90;;;;;;5030432;28;20042;-71
2021/11/06 01:28:41;;;;;;;8.70;3.60;;;8.10;99.90;;;;;;5030887;28;20052;-71
2021/11/06 01:31:07;;;;;;;10.20;3.75;;;8.10;99.90;;;;;;5027562;28;20064;-71
2021/11/06 01:33:33;;;;;;;9.85;3.80;;;8.10;99.90;;;;;;5029846;28;20153;-71
2021/11/06 01:36:02;;;;;;;9.65;4.35;;;8.10;99.90;;;;;;5045574;28;20064;-71
2021/11/06 01:38:28;;;;;;;10.10;4.45;;;8.10;99.90;;;;;;5036798;28;20415;-71
2021/11/06 01:40:54;;;;;;;8.40;3.80;;;8.10;99.90;;;;;;5028992;28;20044;-71
2021/11/06 01:43:20;;;;;;;7.95;4.13;;;8.10;99.90;;;;;;5033852;28;20068;-70
2021/11/06 01:45:54;;;;;;;9.82;4.38;;;8.10;99.90;;;;;;5052899;28;20399;-71
2021/11/06 01:48:20;;;;;;;7.90;4.05;;;8.20;99.90;;;;;;5065570;28;20618;-72
2021/11/06 01:50:46;;;;;;;10.52;4.05;;;8.20;99.90;;;;;;5029114;28;20030;-73
2021/11/06 01:53:12;;;;;;;9.63;4.28;;;8.20;99.90;;;;;;5065277;28;20067;-73
2021/11/06 01:55:41;;;;;;;9.77;4.22;;;8.10;99.90;;;;;;5050692;28;20032;-72
2021/11/06 01:58:07;;;;;;;9.05;4.38;;;8.10;99.90;;;;;;5040079;28;20048;-71
2021/11/06 02:00:33;;;;;;;8.32;4.47;;;8.20;99.90;;;;;;5059890;28;20049;-72
2021/11/06 02:03:01;;;;;;;9.45;4.72;;;8.20;99.90;;;;;;5058424;28;20037;-71
2021/11/06 02:05:27;;;;;;;10.65;4.68;;;8.20;99.90;;;;;;5054430;28;20396;-71
2021/11/06 02:07:53;;;;;;;10.98;4.47;;;8.20;99.90;;;;;;5035531;28;20041;-71
2021/11/06 02:10:19;;;;;;;10.57;5.03;;;8.20;99.90;;;;;;5034007;28;20055;-71
2021/11/06 02:12:45;;;;;;;11.70;5.15;;;8.20;99.90;;;;;;5037734;28;20054;-71
2021/11/06 02:15:16;;;;;;;8.35;5.00;;;8.20;99.90;;;;;;5083117;28;20044;-71
2021/11/06 02:17:43;;;;;;;11.27;5.30;;;8.20;99.90;;;;;;5083040;28;20126;-71
2021/11/06 02:20:09;;;;;;;8.07;4.97;;;8.10;99.90;;;;;;5071699;28;20041;-71
2021/11/06 02:22:35;;;;;;;9.98;5.70;;;8.20;99.90;;;;;;5060856;28;20086;-71
2021/11/06 02:25:01;;;;;;;10.57;5.70;;;8.20;99.90;;;;;;5063559;28;20800;-71
2021/11/06 02:27:27;;;;;;;10.80;5.85;;;8.20;99.90;;;;;;5074257;28;20074;-71
2021/11/06 02:29:54;;;;;;;11.30;6.38;;;8.10;99.90;;;;;;5087317;28;20806;-71
2021/11/06 02:32:19;;;;;;;12.45;6.22;;;8.20;99.90;;;;;;5087472;28;20101;-71
2021/11/06 02:34:45;;;;;;;9.85;6.05;;;8.20;99.90;;;;;;5073174;28;20035;-71
2021/11/06 02:37:11;;;;;;;9.85;6.28;;;8.10;99.90;;;;;;5066226;28;20131;-72
2021/11/06 02:39:37;;;;;;;10.80;6.22;;;8.20;99.90;;;;;;5066841;28;20035;-72
2021/11/06 02:42:06;;;;;;;14.15;6.70;;;8.20;99.90;;;;;;5060277;28;20051;-72
2021/11/06 02:44:33;;;;;;;11.60;6.82;;;8.20;99.90;;;;;;5078417;28;20514;-72
2021/11/06 02:47:04;;;;;;;14.18;7.45;;;8.20;99.90;;;;;;5078266;28;20039;-72
2021/11/06 02:49:29;;;;;;;11.57;6.97;;;8.20;99.90;;;;;;5087638;28;20044;-72
2021/11/06 02:51:55;;;;;;;14.38;7.65;;;8.10;99.90;;;;;;5056504;28;20104;-72
2021/11/06 02:54:21;;;;;;;12.65;7.40;;;8.10;99.90;;;;;;5047101;28;20040;-72
2021/11/06 02:56:47;;;;;;;15.27;8.05;;;8.20;99.90;;;;;;5058471;28;20035;-72
2021/11/06 02:59:13;;;;;;;13.30;8.07;;;8.20;99.90;;;;;;5067764;28;20268;-72
2021/11/06 03:01:39;;;;;;;12.98;8.25;;;8.20;99.90;;;;;;5054756;28;20048;-72
2021/11/06 03:04:09;;;;;;;12.70;8.98;;;8.20;99.90;;;;;;5044805;28;20054;-71
2021/11/06 03:06:36;;;;;;;15.13;9.75;;;8.20;99.90;;;;;;5064674;28;20113;-71
2021/11/06 03:09:03;;;;;;;12.15;8.88;;;8.20;99.90;;;;;;5072544;28;20051;-71
2021/11/06 03:11:31;;;;;;;15.80;9.50;;;8.20;99.90;;;;;;5073265;28;20106;-71
2021/11/06 03:13:58;;;;;;;16.92;9.80;;;8.30;99.90;;;;;;5064373;28;20059;-71
2021/11/06 03:16:27;;;;;;;15.35;10.30;;;8.30;99.90;;;;;;5056439;28;20068;-71
2021/11/06 03:18:53;;;;;;;13.38;10.07;;;8.30;99.90;;;;;;5039322;28;20176;-71
2021/11/06 03:21:20;;;;;;;16.35;11.63;;;8.30;99.90;;;;;;5072560;28;20052;-72
2021/11/06 03:23:46;;;;;;;15.13;10.90;;;8.30;99.90;;;;;;5083235;28;20091;-71
2021/11/06 03:26:13;;;;;;;17.00;10.60;;;8.30;99.90;;;;;;5072323;28;20067;-72
2021/11/06 03:28:39;;;;;;;15.02;10.93;;;8.30;99.90;;;;;;5056653;28;20045;-71
2021/11/06 03:31:05;;;;;;;14.02;11.57;;;8.30;99.90;;;;;;5070510;28;20066;-71
2021/11/06 03:33:32;;;;;;;17.08;11.63;;;8.40;99.90;;;;;;5055957;28;20047;-72
2021/11/06 03:36:01;;;;;;;15.90;12.00;;;8.40;99.90;;;;;;5072355;28;20061;-71
2021/11/06 03:38:27;;;;;;;17.55;12.52;;;8.40;99.90;;;;;;5056672;28;20040;-71
2021/11/06 03:40:53;;;;;;;20.02;13.27;;;8.40;99.90;;;;;;5105981;28;20078;-71
2021/11/06 03:43:19;;;;;;;18.42;13.98;;;8.40;99.90;;;;;;5054513;28;20059;-70
2021/11/06 03:45:45;;;;;;;21.65;14.27;;;8.50;99.90;;;;;;5072225;28;20047;-71
2021/11/06 03:48:10;;;;;;;21.10;15.02;;;8.50;99.90;;;;;;5105818;28;20044;-71
2021/11/06 03:50:36;;;;;;;21.10;15.43;;;8.50;99.90;;;;;;5070780;28;20079;-72
2021/11/06 03:53:02;;;;;;;17.17;14.77;;;8.60;99.90;;;;;;5071758;28;20039;-72
2021/11/06 03:55:34;;;;;;;22.70;15.57;;;8.60;99.90;;;;;;5072427;28;20036;-71
2021/11/06 03:58:03;;;;;;;19.20;16.13;;;8.60;99.90;;;;;;5105337;28;20070;-72
2021/11/06 04:00:32;;;;;;;23.40;17.02;;;8.60;99.90;;;;;;5056079;28;20040;-71
2021/11/06 04:02:57;;;;;;;19.05;16.65;;;8.70;99.90;;;;;;5088705;28;20399;-71
2021/11/06 04:05:24;;;;;;;23.52;18.27;;;8.60;99.90;;;;;;5038478;28;20055;-72
2021/11/06 04:07:49;;;;;;;21.20;18.60;;;8.70;99.90;;;;;;5071817;28;20159;-71
2021/11/06 04:10:15;;;;;;;25.67;19.38;;;8.70;99.90;;;;;;5070758;28;20530;-72
2021/11/06 04:12:42;;;;;;;24.00;19.90;;;8.70;99.90;;;;;;5054949;28;20395;-71
2021/11/06 04:15:13;;;;;;;27.30;22.13;;;8.70;99.90;;;;;;5071703;28;20491;-71
2021/11/06 04:17:39;;;;;;;27.35;20.92;;;8.80;99.90;;;;;;5072619;28;20480;-72
2021/11/06 04:20:08;;;;;;;28.08;20.63;;;8.80;99.90;;;;;;5075501;28;20040;-71
2021/11/06 04:22:34;;;;;;;24.00;21.45;;;8.80;99.90;;;;;;5068842;28;20057;-72
2021/11/06 04:25:02;;;;;;;27.10;21.77;;;8.80;99.90;;;;;;5034740;28;20044;-71
2021/11/06 04:27:31;;;;;;;26.95;24.08;;;8.80;99.90;;;;;;5052258;28;20571;-71
2021/11/06 04:29:59;;;;;;;31.45;23.85;;;8.80;99.90;;;;;;5036216;28;20395;-72
2021/11/06 04:32:25;;;;;;;26.63;22.75;;;8.80;99.90;;;;;;5055532;28;20135;-71
2021/11/06 04:34:51;;;;;;;30.80;25.38;;;8.80;99.90;;;;;;5051491;28;20052;-72
2021/11/06 04:37:17;;;;;;;31.90;25.33;;;8.80;99.90;;;;;;5034334;28;20052;-72
2021/11/06 04:39:42;;;;;;;28.83;25.70;;;8.80;99.90;;;;;;5051483;28;20044;-71
2021/11/06 04:42:08;;;;;;;30.77;25.30;;;8.90;99.90;;;;;;5070608;28;20036;-72
2021/11/06 04:44:34;;;;;;;31.02;27.02;;;8.80;99.90;;;;;;5104962;28;20518;-72
2021/11/06 04:47:00;;;;;;;33.42;26.35;;;8.80;99.90;;;;;;5084851;28;20070;-72
2021/11/06 04:49:26;;;;;;;32.90;27.90;;;8.90;99.90;;;;;;5059178;28;20393;-71
2021/11/06 04:51:52;;;;;;;33.50;27.55;;;8.90;99.90;;;;;;5056531;28;20407;-72
2021/11/06 04:54:17;;;;;;;34.83;26.40;;;8.90;99.90;;;;;;5050109;28;20045;-71
2021/11/06 04:56:43;;;;;;;35.28;28.90;;;8.90;99.90;;;;;;5067795;28;20194;-71
2021/11/06 04:59:10;;;;;;;33.42;28.27;;;8.90;99.90;;;;;;5050895;28;20578;-71
2021/11/06 05:01:36;;;;;;;35.80;29.15;;;8.90;99.90;;;;;;5057284;28;20536;-71
2021/11/06 05:04:01;;;;;;;33.95;29.15;;;8.90;99.90;;;;;;5083103;28;20518;-72
2021/11/06 05:06:30;;;;;;;35.28;28.50;;;8.90;99.90;;;;;;5029018;28;20047;-71
2021/11/06 05:08:56;;;;;;;33.30;29.58;;;8.90;99.90;;;;;;5054951;28;20143;-71
2021/11/06 05:11:22;;;;;;;34.70;28.17;;;8.90;99.90;;;;;;5053713;28;20435;-71
2021/11/06 05:13:48;;;;;;;34.60;30.00;;;8.90;99.90;;;;;;5053950;28;20084;-71
2021/11/06 05:16:13;;;;;;;36.13;30.25;;;9.00;99.90;;;;;;5053737;28;20149;-71
2021/11/06 05:18:39;;;;;;;36.08;29.45;;;9.00;99.90;;;;;;5054137;28;20094;-70
2021/11/06 05:21:05;;;;;;;36.78;29.70;;;8.90;99.90;;;;;;5045180;28;20040;-71
2021/11/06 05:23:31;;;;;;;31.83;28.52;;;8.90;99.90;;;;;;5087862;28;20056;-71
2021/11/06 05:25:57;;;;;;;32.42;28.88;;;8.90;99.90;;;;;;5087548;28;20490;-72
2021/11/06 05:28:22;;;;;;;33.60;29.40;;;8.90;99.90;;;;;;5104497;28;20051;-71
2021/11/06 05:30:48;;;;;;;33.70;30.10;;;8.90;99.90;;;;;;5066667;28;20041;-72
2021/11/06 05:33:14;;;;;;;32.88;29.05;;;8.80;99.90;;;;;;5066983;28;20052;-71
2021/11/06 05:35:40;;;;;;;32.42;29.00;;;8.80;99.90;;;;;;5050365;28;20055;-71
2021/11/06 05:38:06;;;;;;;35.63;30.10;;;8.80;99.90;;;;;;5033719;28;20486;-71
2021/11/06 05:40:32;;;;;;;40.17;30.20;;;8.90;99.90;;;;;;5067744;28;20052;-71
2021/11/06 05:43:01;;;;;;;37.92;30.50;;;8.80;99.90;;;;;;5050163;28;20048;-72
2021/11/06 05:45:27;;;;;;;37.15;31.15;;;8.80;99.90;;;;;;5033716;28;20414;-72
2021/11/06 05:47:53;;;;;;;38.70;31.13;;;8.90;99.90;;;;;;5081176;28;20101;-72
2021/11/06 05:50:19;;;;;;;34.13;30.58;;;8.90;99.90;;;;;;5070314;28;20370;-72
2021/11/06 05:52:44;;;;;;;36.95;30.58;;;8.90;99.90;;;;;;5040989;28;20119;-72
2021/11/06 05:55:14;;;;;;;39.95;31.00;;;8.90;99.90;;;;;;5074036;28;20064;-71
2021/11/06 05:57:41;;;;;;;36.83;30.58;;;9.00;99.90;;;;;;5077087;28;20043;-71
2021/11/06 06:00:14;;;;;;;35.00;30.65;;;8.90;99.90;;;;;;5038961;28;20491;-70
2021/11/06 06:02:39;;;;;;;40.83;31.77;;;8.90;99.90;;;;;;5086237;28;20039;-71
2021/11/06 06:05:06;;;;;;;38.60;30.58;;;8.80;99.90;;;;;;5051747;28;20042;-71
2021/11/06 06:07:32;;;;;;;42.50;33.00;;;8.90;99.90;;;;;;5075075;28;20047;-71
2021/11/06 06:10:01;;;;;;;37.35;30.75;;;8.90;99.90;;;;;;5062128;28;20094;-71
2021/11/06 06:12:27;;;;;;;38.95;31.33;;;8.90;99.90;;;;;;5059605;28;20052;-71
2021/11/06 06:14:53;;;;;;;35.75;30.45;;;8.90;99.90;;;;;;5070978;28;20123;-71
2021/11/06 06:17:19;;;;;;;37.33;30.58;;;8.90;99.90;;;;;;5081258;28;20131;-70
2021/11/06 06:19:44;;;;;;;36.33;31.00;;;8.90;99.90;;;;;;5034947;28;20123;-71
2021/11/06 06:22:10;;;;;;;36.40;30.70;;;8.90;99.90;;;;;;5039641;28;20040;-71
2021/11/06 06:24:36;;;;;;;34.30;29.17;;;8.90;99.90;;;;;;5066211;28;20040;-71
2021/11/06 06:27:02;;;;;;;39.10;29.88;;;8.90;99.90;;;;;;5062191;28;20047;-71
2021/11/06 06:29:32;;;;;;;40.03;29.52;;;8.90;99.90;;;;;;5051632;28;20040;-71
2021/11/06 06:31:57;;;;;;;34.63;29.98;;;9.00;99.90;;;;;;5054391;28;20035;-71
2021/11/06 06:34:23;;;;;;;35.08;29.75;;;9.00;99.90;;;;;;5071268;28;20055;-74
2021/11/06 06:36:49;;;;;;;36.60;29.67;;;9.00;99.90;;;;;;5069774;28;20040;-73
2021/11/06 06:39:18;;;;;;;35.33;30.77;;;9.00;99.90;;;;;;5047955;28;20039;-74
2021/11/06 06:41:44;;;;;;;34.05;29.83;;;9.00;99.90;;;;;;5062206;28;20067;-74
2021/11/06 06:44:10;;;;;;;36.90;30.08;;;9.00;99.90;;;;;;5105128;28;20036;-74
2021/11/06 06:46:37;;;;;;;40.83;32.08;;;9.00;99.90;;;;;;5081213;28;20634;-73
2021/11/06 06:49:03;;;;;;;38.05;31.05;;;9.00;99.90;;;;;;5072422;28;20043;-74
2021/11/06 06:51:32;;;;;;;42.38;32.42;;;9.00;99.90;;;;;;5059159;28;20631;-74
2021/11/06 06:53:57;;;;;;;37.92;30.05;;;9.00;99.90;;;;;;5072367;28;20040;-74
2021/11/06 06:56:23;;;;;;;38.53;30.52;;;9.00;99.90;;;;;;5083336;28;20031;-73
2021/11/06 06:58:49;;;;;;;46.50;32.95;;;9.00;99.90;;;;;;5090285;28;20050;-73
2021/11/06 07:01:15;;;;;;;39.50;31.85;;;9.00;99.90;;;;;;5075732;28;20051;-74
2021/11/06 07:03:41;;;;;;;43.63;33.25;;;9.10;99.90;;;;;;5091867;28;20196;-74
2021/11/06 07:06:07;;;;;;;39.03;33.35;;;9.10;99.90;;;;;;5055646;28;20044;-73
2021/11/06 07:08:33;;;;;;;40.70;33.00;;;9.10;99.90;;;;;;5077118;28;20055;-74
2021/11/06 07:11:02;;;;;;;41.00;33.50;;;9.10;99.90;;;;;;5079037;28;20101;-74
2021/11/06 07:13:31;;;;;;;41.83;34.13;;;9.10;99.90;;;;;;5045403;28;20060;-73
2021/11/06 07:15:57;;;;;;;40.28;33.22;;;9.10;99.90;;;;;;5086710;28;20058;-72
2021/11/06 07:18:22;;;;;;;42.28;33.25;;;9.10;99.90;;;;;;5058880;28;20040;-72
2021/11/06 07:20:48;;;;;;;41.25;32.08;;;9.10;99.90;;;;;;5079807;28;20341;-72
2021/11/06 07:23:15;;;;;;;40.28;31.90;;;9.10;99.90;;;;;;5064197;28;20040;-71
2021/11/06 07:25:40;;;;;;;40.95;31.85;;;9.10;99.90;;;;;;5073075;28;20046;-71
2021/11/06 07:28:06;;;;;;;39.50;31.20;;;9.10;99.90;;;;;;5088720;28;20036;-72
2021/11/06 07:30:32;;;;;;;40.67;31.27;;;9.10;99.90;;;;;;5050970;28;20083;-71
2021/11/06 07:33:01;;;;;;;36.63;30.52;;;9.10;99.90;;;;;;5066465;28;20119;-72
2021/11/06 07:35:27;;;;;;;38.85;30.27;;;9.20;99.90;;;;;;5081453;28;20484;-71
2021/11/06 07:37:52;;;;;;;40.40;31.35;;;9.20;99.90;;;;;;5085882;28;20047;-72
2021/11/06 07:40:22;;;;;;;38.92;29.83;;;9.10;99.90;;;;;;5077715;28;20704;-71
2021/11/06 07:42:48;;;;;;;43.38;29.60;;;9.20;99.90;;;;;;5077069;28;20036;-71
2021/11/06 07:45:18;;;;;;;36.63;28.73;;;9.20;99.90;;;;;;5084302;28;20046;-72
2021/11/06 07:47:47;;;;;;;38.83;30.08;;;9.20;99.90;;;;;;5080151;28;20047;-71
2021/11/06 07:50:14;;;;;;;37.80;28.83;;;9.20;99.90;;;;;;5067905;28;20376;-71
2021/11/06 07:52:40;;;;;;;41.15;29.23;;;9.20;99.90;;;;;;5070737;28;20059;-71
2021/11/06 07:55:06;;;;;;;36.42;28.83;;;9.20;99.90;;;;;;5074422;28;20050;-71
2021/11/06 07:57:32;;;;;;;33.38;28.13;;;9.20;99.90;;;;;;5064429;28;20052;-72
2021/11/06 07:59:59;;;;;;;36.53;28.83;;;9.20;99.90;;;;;;5049469;28;20056;-71
2021/11/06 08:02:30;;;;;;;40.13;27.92;;;9.20;99.90;;;;;;5070878;28;20106;-71
2021/11/06 08:04:56;;;;;;;39.65;29.27;;;9.20;99.90;;;;;;5058407;28;20072;-72
2021/11/06 08:07:22;;;;;;;36.80;28.95;;;9.20;99.90;;;;;;5063037;28;20402;-72
2021/11/06 08:09:48;;;;;;;40.35;30.38;;;9.30;99.90;;;;;;5075252;28;20394;-71
2021/11/06 08:12:13;;;;;;;35.78;28.30;;;9.30;99.90;;;;;;5046458;28;20039;-71
2021/11/06 08:14:39;;;;;;;37.92;29.08;;;9.30;99.90;;;;;;5059301;28;20055;-71
2021/11/06 08:17:07;;;;;;;38.83;29.77;;;9.30;99.90;;;;;;5061420;28;20048;-72
2021/11/06 08:19:33;;;;;;;34.03;27.83;;;9.30;99.90;;;;;;5077699;28;20449;-71
2021/11/06 08:22:01;;;;;;;41.80;28.83;;;9.30;99.90;;;;;;5087944;28;20099;-71
2021/11/06 08:24:27;;;;;;;35.28;28.10;;;9.30;99.90;;;;;;5062345;28;20049;-71
2021/11/06 08:26:53;;;;;;;39.05;29.80;;;9.30;99.90;;;;;;5058301;28;20486;-72
2021/11/06 08:29:19;;;;;;;39.72;30.42;;;9.30;99.90;;;;;;5066005;28;20079;-72
2021/11/06 08:31:45;;;;;;;35.85;27.42;;;9.30;99.90;;;;;;5060714;28;20199;-72
2021/11/06 08:34:10;;;;;;;33.35;28.63;;;9.30;99.90;;;;;;5036248;28;20043;-71
2021/11/06 08:36:37;;;;;;;36.78;28.20;;;9.30;99.90;;;;;;5053730;28;20036;-72
2021/11/06 08:39:05;;;;;;;34.50;28.02;;;9.40;99.90;;;;;;5055299;28;20449;-71
2021/11/06 08:41:30;;;;;;;38.95;29.50;;;9.40;99.90;;;;;;5094971;28;20101;-72
2021/11/06 08:43:56;;;;;;;39.38;27.15;;;9.40;99.90;;;;;;5061926;28;20107;-71
2021/11/06 08:46:22;;;;;;;36.58;27.88;;;9.40;99.90;;;;;;5075932;28;20134;-71
2021/11/06 08:48:48;;;;;;;37.85;26.65;;;9.40;99.90;;;;;;5031202;28;20705;-71
2021/11/06 08:51:14;;;;;;;34.38;26.80;;;9.50;99.90;;;;;;5032708;28;20124;-71
2021/11/06 08:53:40;;;;;;;33.75;26.55;;;9.50;99.90;;;;;;5065775;28;20036;-72
2021/11/06 08:56:09;;;;;;;34.33;27.45;;;9.50;99.90;;;;;;5058746;28;20036;-72
2021/11/06 08:58:35;;;;;;;37.85;27.08;;;9.50;99.90;;;;;;5065645;28;20139;-72
2021/11/06 09:01:01;;;;;;;38.38;26.65;;;9.60;99.90;;;;;;5091308;28;20040;-72
2021/11/06 09:03:28;;;;;;;34.75;26.33;;;9.60;99.90;;;;;;5065856;28;20050;-72
2021/11/06 09:05:54;;;;;;;36.25;27.08;;;9.60;99.90;;;;;;5044449;28;20127;-71
2021/11/06 09:08:31;;;;;;;36.17;27.20;;;9.60;99.90;;;;;;5066662;28;20054;-72
2021/11/06 09:11:04;;;;;;;36.50;26.08;;;9.60;99.90;;;;;;5094122;28;20047;-72
2021/11/06 09:13:33;;;;;;;37.63;26.60;;;9.60;99.90;;;;;;5059770;28;20155;-72
2021/11/06 09:16:07;;;;;;;37.75;27.20;;;9.60;99.90;;;;;;5065670;28;20529;-72
2021/11/06 09:18:42;;;;;;;36.42;25.40;;;9.70;99.90;;;;;;5043760;28;20104;-72
2021/11/06 09:21:14;;;;;;;33.05;24.25;;;9.70;99.90;;;;;;5079898;28;20081;-72
2021/11/06 09:23:41;;;;;;;36.85;24.77;;;9.80;99.90;;;;;;5049514;28;20130;-71
2021/11/06 09:26:09;;;;;;;33.83;25.38;;;9.80;99.90;;;;;;5059067;28;20048;-72
2021/11/06 09:28:40;;;;;;;36.13;24.45;;;9.80;99.90;;;;;;5065570;28;20140;-72
2021/11/06 09:31:09;;;;;;;34.60;24.73;;;9.90;99.90;;;;;;5092257;28;20047;-72
2021/11/06 09:33:35;;;;;;;36.75;25.35;;;10.00;99.90;;;;;;5034280;28;20052;-72
2021/11/06 09:36:01;;;;;;;38.25;24.27;;;10.00;99.90;;;;;;5052378;28;20119;-71
2021/11/06 09:38:27;;;;;;;33.55;24.88;;;10.00;99.90;;;;;;5042109;28;20134;-72
2021/11/06 09:40:53;;;;;;;35.50;24.17;;;10.10;99.90;;;;;;5062555;28;20051;-71
2021/11/06 09:43:18;;;;;;;34.90;24.55;;;10.10;99.90;;;;;;5092577;28;20281;-72
2021/11/06 09:45:45;;;;;;;33.65;24.05;;;10.10;99.90;;;;;;5050177;28;20048;-72
2021/11/06 09:48:11;;;;;;;34.55;23.52;;;10.20;99.90;;;;;;5067062;28;20487;-72
2021/11/06 10:49:38;;;;;;;35.90;26.30;;;10.30;99.90;;;;;;5112498;27;1534894;-72
2021/11/06 10:57:39;;;;;;;30.92;24.13;;;10.40;99.90;;;;;;5144114;27;20906;-72
2021/11/06 11:00:13;;;;;;;34.13;23.85;;;10.40;99.90;;;;;;5127091;27;20053;-74
2021/11/06 11:02:39;;;;;;;33.83;23.65;;;10.50;99.90;;;;;;5127043;27;20073;-73
2021/11/06 11:05:06;;;;;;;32.25;22.80;;;10.50;99.90;;;;;;5125682;27;20042;-71
2021/11/06 11:07:31;;;;;;;29.58;22.17;;;10.50;99.90;;;;;;5109865;27;20134;-73
2021/11/06 11:09:57;;;;;;;31.00;21.27;;;10.60;99.90;;;;;;5092483;27;20122;-73
2021/11/06 11:12:24;;;;;;;30.80;20.73;;;10.70;99.90;;;;;;5105381;27;20049;-71
2021/11/06 11:14:57;;;;;;;31.55;20.23;;;10.70;99.90;;;;;;5103395;27;20100;-71
2021/11/06 11:17:42;;;;;;;29.50;20.02;;;10.80;99.90;;;;;;5084356;27;20117;-71
2021/11/06 11:20:30;;;;;;;28.80;20.00;;;10.80;99.90;;;;;;5115472;27;20042;-71
2021/11/06 11:23:13;;;;;;;28.48;19.45;;;10.80;99.90;;;;;;5152289;27;20043;-72
2021/11/06 11:25:40;;;;;;;27.38;18.35;;;10.80;99.90;;;;;;5102317;27;20059;-72
2021/11/06 11:28:07;;;;;;;32.45;19.00;;;10.80;99.90;;;;;;5103989;27;20490;-72
2021/11/06 11:30:33;;;;;;;27.60;17.60;;;10.80;99.90;;;;;;5102632;27;20508;-71
2021/11/06 11:33:00;;;;;;;25.92;18.38;;;10.90;99.90;;;;;;5100950;27;20046;-71
2021/11/06 11:35:27;;;;;;;28.17;18.05;;;10.80;99.90;;;;;;5096548;27;20502;-72
2021/11/06 11:38:04;;;;;;;27.20;17.15;;;10.90;99.90;;;;;;5145132;27;20046;-71
2021/11/06 11:40:33;;;;;;;24.45;16.52;;;10.90;99.90;;;;;;5103379;27;20158;-72
2021/11/06 11:43:26;;;;;;;25.58;18.55;;;10.90;99.90;;;;;;5135883;27;20047;-71
2021/11/06 11:46:00;;;;;;;26.23;17.48;;;11.00;99.90;;;;;;5148621;27;20039;-71
2021/11/06 11:48:29;;;;;;;25.55;16.52;;;11.00;99.90;;;;;;5117480;27;20061;-72
2021/11/06 11:50:59;;;;;;;25.50;17.23;;;11.00;99.90;;;;;;5109442;27;20122;-72
2021/11/06 11:53:28;;;;;;;28.50;16.92;;;11.00;99.90;;;;;;5099335;27;20055;-72
2021/11/06 11:55:56;;;;;;;24.13;15.77;;;11.00;99.90;;;;;;5101857;27;20051;-72
2021/11/06 11:58:25;;;;;;;22.23;14.88;;;11.00;99.90;;;;;;5143375;27;20464;-72
2021/11/06 12:00:58;;;;;;;25.92;16.40;;;11.00;99.90;;;;;;5109362;28;20047;-72
2021/11/06 12:03:41;;;;;;;24.42;15.43;;;11.00;99.90;;;;;;5116909;27;20068;-72
2021/11/06 12:06:23;;;;;;;22.50;14.93;;;11.00;99.90;;;;;;5147687;27;20047;-71
2021/11/06 12:08:53;;;;;;;23.90;14.77;;;11.10;99.90;;;;;;5098788;28;20349;-72
2021/11/06 12:11:22;;;;;;;22.88;15.32;;;11.10;99.90;;;;;;5142977;27;20920;-72
2021/11/06 12:13:49;;;;;;;20.50;14.30;;;11.00;99.90;;;;;;5141490;27;20573;-72
2021/11/06 12:16:18;;;;;;;24.15;15.40;;;11.10;99.90;;;;;;5127255;27;20047;-72
2021/11/06 12:18:44;;;;;;;23.90;14.10;;;11.10;99.90;;;;;;5099311;27;20124;-71
2021/11/06 12:21:14;;;;;;;23.95;13.57;;;11.10;99.90;;;;;;5136772;27;20047;-72
2021/11/06 12:23:40;;;;;;;20.90;14.25;;;11.10;99.90;;;;;;5093540;27;20059;-72
2021/11/06 12:26:21;;;;;;;22.40;14.20;;;11.10;99.90;;;;;;5098827;27;20044;-73
2021/11/06 12:28:52;;;;;;;21.60;13.45;;;11.10;99.90;;;;;;5092939;27;20043;-73
2021/11/06 12:31:27;;;;;;;;;;;11.10;99.90;;;;;;5113192;27;20039;-73
2021/11/06 12:33:58;;;;;;;16.45;11.88;;;11.20;99.90;;;;;;5104511;27;19930;-73
2021/11/06 12:36:28;;;;;;;22.33;13.52;;;11.20;99.90;;;;;;5130634;27;20050;-73
2021/11/06 12:39:02;;;;;;;17.88;12.27;;;11.30;99.90;;;;;;5110691;27;20047;-72
2021/11/06 12:41:30;;;;;;;20.90;11.65;;;11.30;99.90;;;;;;5120001;27;20056;-73
2021/11/06 12:43:57;;;;;;;16.05;12.13;;;11.30;99.90;;;;;;5092429;27;20114;-73
2021/11/06 12:46:27;;;;;;;20.98;11.70;;;11.30;99.90;;;;;;5097727;27;20161;-72
2021/11/06 12:49:01;;;;;;;21.17;12.00;;;11.30;99.90;;;;;;5092698;27;20051;-72
2021/11/06 12:51:30;;;;;;;20.65;11.02;;;11.40;99.90;;;;;;5092487;28;20714;-71
2021/11/06 12:54:03;;;;;;;17.65;10.40;;;11.40;99.90;;;;;;5095309;27;20036;-71
2021/11/06 12:56:36;;;;;;;19.73;11.20;;;11.40;99.90;;;;;;5097330;28;20063;-72
2021/11/06 12:59:13;;;;;;;19.30;11.80;;;11.40;99.90;;;;;;5137809;27;20043;-71
2021/11/06 13:01:42;;;;;;;19.15;11.00;;;11.40;99.90;;;;;;5091904;27;20134;-72
2021/11/06 13:04:13;;;;;;;18.17;11.15;;;11.40;99.90;;;;;;5105541;27;20047;-72
2021/11/06 13:06:39;;;;;;;18.90;10.95;;;11.30;99.90;;;;;;5104378;27;20608;-72
2021/11/06 13:09:18;;;;;;;17.38;11.00;;;11.30;99.90;;;;;;5131105;27;20449;-72
2021/11/06 13:11:58;;;;;;;17.25;10.70;;;11.30;99.90;;;;;;5095763;27;20051;-72
2021/11/06 13:15:01;;;;;;;18.38;10.60;;;11.30;99.90;;;;;;5134070;27;20482;-71
2021/11/06 13:17:34;;;;;;;21.63;10.88;;;11.30;99.90;;;;;;5083755;27;20122;-71
2021/11/06 13:20:14;;;;;;;18.83;11.00;;;11.30;99.90;;;;;;5130131;27;20046;-72
2021/11/06 13:23:01;;;;;;;18.25;10.82;;;11.30;99.90;;;;;;5097663;27;20201;-72
2021/11/06 13:25:37;;;;;;;17.98;10.32;;;11.20;99.90;;;;;;5078125;27;20047;-71
2021/11/06 13:28:08;;;;;;;16.45;10.00;;;11.20;99.90;;;;;;5096864;27;20490;-72
2021/11/06 13:30:38;;;;;;;17.77;10.60;;;11.10;99.90;;;;;;5138852;27;20177;-72
2021/11/06 13:33:11;;;;;;;17.65;11.60;;;11.10;99.90;;;;;;5135502;27;20684;-72
2021/11/06 13:35:43;;;;;;;18.52;11.55;;;11.10;99.90;;;;;;5074164;28;20047;-72
2021/11/06 13:38:17;;;;;;;19.33;11.23;;;11.00;99.90;;;;;;5090430;28;20100;-71
2021/11/06 13:40:55;;;;;;;17.63;10.95;;;11.00;99.90;;;;;;5126374;27;20059;-74
2021/11/06 13:43:49;;;;;;;18.25;10.65;;;11.00;99.90;;;;;;5091664;28;20044;-73
2021/11/06 13:46:17;;;;;;;18.83;10.95;;;11.00;99.90;;;;;;5114163;27;20413;-73